QFA14D EGHH-EGJJ
Flight info
| Callsign | QFA14D |
|---|---|
| Flight time | 0h 34m |
| Altitude | 16000 |
| Route | THRED Q41 ORTAC |
| Aircraft | DH8D/M-SDE2E3FGRY/H |
Departure
| Time | 2026-05-07 19:35 |
|---|---|
| Airport | Bournemouth Airport (EGHH) |
Arrival
| Time | 2026-05-07 20:09 |
|---|---|
| Airport | Jersey Airport (EGJJ) |
| Time | Latitude | Longitude | Altitude | Speed | Heading |
|---|---|---|---|---|---|
| 2026-05-07 19:16 | 50.77703 | -1.83564 | 45 ft | 0 kts | 266° |
| 2026-05-07 19:20 | 50.77707 | -1.83584 | 45 ft | 6 kts | 292° |
| 2026-05-07 19:20 | 50.77740 | -1.83577 | 45 ft | 0 kts | 54° |
| 2026-05-07 19:21 | 50.77741 | -1.83577 | 45 ft | 0 kts | 54° |
| 2026-05-07 19:21 | 50.77761 | -1.83518 | 45 ft | 1 kts | 88° |
| 2026-05-07 19:21 | 50.77735 | -1.83468 | 45 ft | 10 kts | 177° |
| 2026-05-07 19:21 | 50.77731 | -1.83468 | 45 ft | 0 kts | 179° |
| 2026-05-07 19:23 | 50.77726 | -1.83468 | 45 ft | 6 kts | 185° |
| 2026-05-07 19:23 | 50.77591 | -1.83538 | 45 ft | 33 kts | 230° |
| 2026-05-07 19:23 | 50.77591 | -1.83877 | 44 ft | 24 kts | 282° |
| 2026-05-07 19:24 | 50.77621 | -1.84092 | 45 ft | 16 kts | 284° |
| 2026-05-07 19:24 | 50.77668 | -1.84341 | 45 ft | 27 kts | 287° |
| 2026-05-07 19:24 | 50.77706 | -1.84585 | 45 ft | 18 kts | 283° |
| 2026-05-07 19:24 | 50.77729 | -1.84735 | 44 ft | 9 kts | 284° |
| 2026-05-07 19:25 | 50.77736 | -1.84777 | 45 ft | 0 kts | 288° |
| 2026-05-07 19:33 | 50.77736 | -1.84778 | 44 ft | 0 kts | 288° |
| 2026-05-07 19:33 | 50.77739 | -1.84791 | 45 ft | 0 kts | 289° |
| 2026-05-07 19:33 | 50.77740 | -1.84798 | 45 ft | 0 kts | 290° |
| 2026-05-07 19:33 | 50.77755 | -1.84853 | 45 ft | 18 kts | 294° |
| 2026-05-07 19:34 | 50.77821 | -1.85055 | 45 ft | 17 kts | 301° |
| 2026-05-07 19:34 | 50.77922 | -1.84813 | 45 ft | 68 kts | 73° |
| 2026-05-07 19:34 | 50.78119 | -1.83642 | 63 ft | 144 kts | 74° |
| 2026-05-07 19:34 | 50.78352 | -1.81975 | 529 ft | 162 kts | 76° |
| 2026-05-07 19:35 | 50.78554 | -1.80223 | 1214 ft | 167 kts | 77° |
| 2026-05-07 19:35 | 50.78385 | -1.78427 | 1819 ft | 177 kts | 117° |
| 2026-05-07 19:35 | 50.77342 | -1.77380 | 2141 ft | 183 kts | 160° |
| 2026-05-07 19:35 | 50.76111 | -1.76936 | 2449 ft | 182 kts | 163° |
| 2026-05-07 19:36 | 50.74885 | -1.76503 | 2738 ft | 180 kts | 162° |
| 2026-05-07 19:36 | 50.73660 | -1.76056 | 3023 ft | 179 kts | 162° |
| 2026-05-07 19:36 | 50.72469 | -1.75607 | 3300 ft | 178 kts | 162° |
| 2026-05-07 19:36 | 50.71257 | -1.75139 | 3579 ft | 178 kts | 162° |
| 2026-05-07 19:37 | 50.70057 | -1.74667 | 3889 ft | 181 kts | 162° |
| 2026-05-07 19:37 | 50.68828 | -1.74179 | 4237 ft | 184 kts | 162° |
| 2026-05-07 19:37 | 50.67583 | -1.73679 | 4613 ft | 186 kts | 162° |
| 2026-05-07 19:37 | 50.66327 | -1.73172 | 4989 ft | 187 kts | 162° |
| 2026-05-07 19:38 | 50.65066 | -1.72660 | 5380 ft | 187 kts | 162° |
| 2026-05-07 19:38 | 50.63818 | -1.72152 | 5763 ft | 188 kts | 162° |
| 2026-05-07 19:38 | 50.62554 | -1.71637 | 6152 ft | 188 kts | 162° |
| 2026-05-07 19:38 | 50.61287 | -1.71119 | 6553 ft | 188 kts | 162° |
| 2026-05-07 19:39 | 50.60022 | -1.70602 | 6939 ft | 188 kts | 162° |
| 2026-05-07 19:39 | 50.58766 | -1.70088 | 7316 ft | 189 kts | 163° |
| 2026-05-07 19:39 | 50.57497 | -1.69570 | 7683 ft | 190 kts | 163° |
| 2026-05-07 19:39 | 50.56633 | -1.69216 | 7934 ft | 191 kts | 163° |
| 2026-05-07 19:40 | 50.54917 | -1.68514 | 8412 ft | 192 kts | 163° |
| 2026-05-07 19:40 | 50.53625 | -1.67986 | 8771 ft | 194 kts | 163° |
| 2026-05-07 19:40 | 50.52320 | -1.67453 | 9129 ft | 195 kts | 163° |
| 2026-05-07 19:40 | 50.51009 | -1.66917 | 9476 ft | 196 kts | 164° |
| 2026-05-07 19:41 | 50.49680 | -1.66660 | 9791 ft | 197 kts | 191° |
| 2026-05-07 19:41 | 50.48387 | -1.67381 | 10103 ft | 196 kts | 205° |
| 2026-05-07 19:41 | 50.47149 | -1.68259 | 10445 ft | 198 kts | 205° |
| 2026-05-07 19:41 | 50.45874 | -1.69159 | 10824 ft | 202 kts | 205° |
| 2026-05-07 19:42 | 50.45025 | -1.69756 | 11089 ft | 204 kts | 205° |
| 2026-05-07 19:42 | 50.43285 | -1.70971 | 11647 ft | 208 kts | 204° |
| 2026-05-07 19:42 | 50.41962 | -1.71889 | 12078 ft | 209 kts | 204° |
| 2026-05-07 19:42 | 50.40630 | -1.72812 | 12513 ft | 211 kts | 204° |
| 2026-05-07 19:43 | 50.39300 | -1.73730 | 12945 ft | 212 kts | 204° |
| 2026-05-07 19:43 | 50.37950 | -1.74661 | 13385 ft | 213 kts | 204° |
| 2026-05-07 19:43 | 50.36578 | -1.75606 | 13833 ft | 215 kts | 204° |
| 2026-05-07 19:43 | 50.35225 | -1.76537 | 14275 ft | 216 kts | 204° |
| 2026-05-07 19:44 | 50.33856 | -1.77477 | 14715 ft | 217 kts | 204° |
| 2026-05-07 19:44 | 50.32482 | -1.78419 | 15152 ft | 217 kts | 204° |
| 2026-05-07 19:44 | 50.31102 | -1.79366 | 15575 ft | 219 kts | 204° |
| 2026-05-07 19:44 | 50.29647 | -1.80363 | 15787 ft | 233 kts | 204° |
| 2026-05-07 19:45 | 50.28141 | -1.81394 | 15860 ft | 241 kts | 203° |
| 2026-05-07 19:45 | 50.26590 | -1.82443 | 15886 ft | 244 kts | 203° |
| 2026-05-07 19:45 | 50.25023 | -1.83508 | 15895 ft | 247 kts | 203° |
| 2026-05-07 19:45 | 50.23435 | -1.84587 | 15898 ft | 250 kts | 203° |
| 2026-05-07 19:46 | 50.21838 | -1.85673 | 15899 ft | 254 kts | 203° |
| 2026-05-07 19:46 | 50.20190 | -1.86794 | 15775 ft | 264 kts | 203° |
| 2026-05-07 19:46 | 50.18475 | -1.87959 | 15549 ft | 276 kts | 203° |
| 2026-05-07 19:46 | 50.16687 | -1.89175 | 15317 ft | 287 kts | 203° |
| 2026-05-07 19:47 | 50.14823 | -1.90441 | 15081 ft | 295 kts | 203° |
| 2026-05-07 19:47 | 50.12921 | -1.91734 | 14842 ft | 303 kts | 203° |
| 2026-05-07 19:47 | 50.11641 | -1.92602 | 14685 ft | 307 kts | 203° |
| 2026-05-07 19:47 | 50.09007 | -1.94389 | 14362 ft | 312 kts | 203° |
| 2026-05-07 19:48 | 50.07008 | -1.95743 | 14117 ft | 315 kts | 203° |
| 2026-05-07 19:48 | 50.04974 | -1.97119 | 13868 ft | 318 kts | 203° |
| 2026-05-07 19:48 | 50.02971 | -1.98485 | 13624 ft | 320 kts | 204° |
| 2026-05-07 19:48 | 50.01149 | -2.00492 | 13342 ft | 321 kts | 230° |
| 2026-05-07 19:49 | 50.00188 | -2.03545 | 13091 ft | 317 kts | 259° |
| 2026-05-07 19:49 | 50.00032 | -2.06889 | 12876 ft | 314 kts | 271° |
| 2026-05-07 19:49 | 50.00022 | -2.10296 | 12629 ft | 315 kts | 272° |
| 2026-05-07 19:49 | 50.00028 | -2.13719 | 12379 ft | 315 kts | 272° |
| 2026-05-07 19:50 | 50.00037 | -2.17103 | 12132 ft | 316 kts | 272° |
| 2026-05-07 19:50 | 50.00047 | -2.20492 | 11886 ft | 315 kts | 272° |
| 2026-05-07 19:50 | 50.00058 | -2.23877 | 11636 ft | 315 kts | 272° |
| 2026-05-07 19:50 | 50.00068 | -2.27269 | 11386 ft | 314 kts | 272° |
| 2026-05-07 19:51 | 50.00077 | -2.30684 | 11134 ft | 314 kts | 273° |
| 2026-05-07 19:51 | 50.00086 | -2.34061 | 10884 ft | 313 kts | 273° |
| 2026-05-07 19:51 | 50.00075 | -2.37414 | 10634 ft | 312 kts | 270° |
| 2026-05-07 19:51 | 49.99508 | -2.40631 | 10354 ft | 317 kts | 243° |
| 2026-05-07 19:52 | 49.97987 | -2.43068 | 10098 ft | 319 kts | 214° |
| 2026-05-07 19:52 | 49.95926 | -2.44350 | 9873 ft | 318 kts | 197° |
| 2026-05-07 19:52 | 49.93794 | -2.45258 | 9631 ft | 317 kts | 195° |
| 2026-05-07 19:52 | 49.92388 | -2.45804 | 9470 ft | 317 kts | 194° |
| 2026-05-07 19:53 | 49.89521 | -2.46836 | 9135 ft | 317 kts | 193° |
| 2026-05-07 19:53 | 49.87348 | -2.47148 | 8921 ft | 312 kts | 173° |
| 2026-05-07 19:53 | 49.85443 | -2.45918 | 8883 ft | 285 kts | 141° |
| 2026-05-07 19:53 | 49.84007 | -2.44013 | 8869 ft | 266 kts | 142° |
| 2026-05-07 19:54 | 49.82338 | -2.43137 | 8869 ft | 249 kts | 177° |
| 2026-05-07 19:54 | 49.80645 | -2.43224 | 8871 ft | 233 kts | 182° |
| 2026-05-07 19:54 | 49.79070 | -2.43338 | 8765 ft | 225 kts | 182° |
| 2026-05-07 19:54 | 49.77525 | -2.43427 | 8504 ft | 223 kts | 181° |
| 2026-05-07 19:55 | 49.75977 | -2.43490 | 8224 ft | 223 kts | 181° |
| 2026-05-07 19:55 | 49.74426 | -2.43531 | 7944 ft | 222 kts | 180° |
| 2026-05-07 19:55 | 49.72871 | -2.43555 | 7670 ft | 222 kts | 180° |
| 2026-05-07 19:55 | 49.71341 | -2.43568 | 7396 ft | 222 kts | 179° |
| 2026-05-07 19:56 | 49.69811 | -2.43570 | 7113 ft | 218 kts | 179° |
| 2026-05-07 19:56 | 49.68315 | -2.43567 | 6838 ft | 215 kts | 179° |
| 2026-05-07 19:56 | 49.66821 | -2.43559 | 6551 ft | 212 kts | 179° |
| 2026-05-07 19:56 | 49.65350 | -2.43548 | 6251 ft | 210 kts | 179° |
| 2026-05-07 19:57 | 49.63919 | -2.43534 | 5973 ft | 207 kts | 178° |
| 2026-05-07 19:57 | 49.62477 | -2.43518 | 5681 ft | 204 kts | 178° |
| 2026-05-07 19:57 | 49.61073 | -2.43505 | 5402 ft | 202 kts | 178° |
| 2026-05-07 19:57 | 49.59688 | -2.43489 | 5123 ft | 200 kts | 178° |
| 2026-05-07 19:58 | 49.58311 | -2.43472 | 4846 ft | 198 kts | 178° |
| 2026-05-07 19:58 | 49.57391 | -2.43461 | 4658 ft | 196 kts | 178° |
| 2026-05-07 19:58 | 49.55580 | -2.43437 | 4284 ft | 194 kts | 178° |
| 2026-05-07 19:58 | 49.54245 | -2.43420 | 4011 ft | 192 kts | 178° |
| 2026-05-07 19:59 | 49.52920 | -2.43402 | 3734 ft | 190 kts | 178° |
| 2026-05-07 19:59 | 49.51610 | -2.43384 | 3449 ft | 188 kts | 177° |
| 2026-05-07 19:59 | 49.50308 | -2.43365 | 3163 ft | 187 kts | 177° |
| 2026-05-07 19:59 | 49.48999 | -2.43347 | 2875 ft | 185 kts | 177° |
| 2026-05-07 20:00 | 49.48154 | -2.43336 | 2692 ft | 184 kts | 178° |
| 2026-05-07 20:00 | 49.46467 | -2.43310 | 2326 ft | 181 kts | 178° |
| 2026-05-07 20:00 | 49.45221 | -2.43296 | 2097 ft | 176 kts | 178° |
| 2026-05-07 20:00 | 49.44030 | -2.43282 | 1975 ft | 162 kts | 177° |
| 2026-05-07 20:01 | 49.42965 | -2.43271 | 1871 ft | 146 kts | 178° |
| 2026-05-07 20:01 | 49.42288 | -2.43262 | 1638 ft | 150 kts | 178° |
| 2026-05-07 20:01 | 49.40902 | -2.43241 | 1255 ft | 145 kts | 178° |
| 2026-05-07 20:01 | 49.39859 | -2.43236 | 1218 ft | 151 kts | 180° |
| 2026-05-07 20:02 | 49.38828 | -2.43246 | 1513 ft | 151 kts | 179° |
| 2026-05-07 20:02 | 49.37737 | -2.43244 | 1705 ft | 161 kts | 179° |
| 2026-05-07 20:02 | 49.36571 | -2.43234 | 1819 ft | 177 kts | 178° |
| 2026-05-07 20:02 | 49.35266 | -2.43216 | 1881 ft | 200 kts | 178° |
| 2026-05-07 20:03 | 49.34314 | -2.43202 | 1890 ft | 206 kts | 178° |
| 2026-05-07 20:03 | 49.32876 | -2.43175 | 1899 ft | 210 kts | 178° |
| 2026-05-07 20:03 | 49.31382 | -2.43150 | 1900 ft | 215 kts | 178° |
| 2026-05-07 20:03 | 49.29384 | -2.43118 | 1902 ft | 219 kts | 178° |
| 2026-05-07 20:04 | 49.27852 | -2.43094 | 1896 ft | 216 kts | 178° |
| 2026-05-07 20:04 | 49.26385 | -2.43070 | 1893 ft | 211 kts | 178° |
| 2026-05-07 20:04 | 49.24935 | -2.43048 | 1890 ft | 205 kts | 178° |
| 2026-05-07 20:04 | 49.23512 | -2.43027 | 1890 ft | 200 kts | 178° |
| 2026-05-07 20:05 | 49.22142 | -2.43007 | 1888 ft | 195 kts | 178° |
| 2026-05-07 20:05 | 49.20822 | -2.42959 | 1880 ft | 185 kts | 171° |
| 2026-05-07 20:05 | 49.19767 | -2.42113 | 1879 ft | 170 kts | 118° |
| 2026-05-07 20:05 | 49.19509 | -2.40471 | 1890 ft | 156 kts | 87° |
| 2026-05-07 20:06 | 49.19443 | -2.38820 | 1900 ft | 155 kts | 83° |
| 2026-05-07 20:06 | 49.19494 | -2.37729 | 1897 ft | 157 kts | 81° |
| 2026-05-07 20:06 | 49.19573 | -2.36086 | 1897 ft | 147 kts | 81° |
| 2026-05-07 20:06 | 49.19664 | -2.34068 | 1927 ft | 144 kts | 82° |
| 2026-05-07 20:07 | 49.19741 | -2.32509 | 1894 ft | 152 kts | 81° |
| 2026-05-07 20:07 | 49.19844 | -2.30806 | 1688 ft | 168 kts | 80° |
| 2026-05-07 20:07 | 49.19984 | -2.28997 | 1424 ft | 172 kts | 79° |
| 2026-05-07 20:07 | 49.20143 | -2.27175 | 1166 ft | 171 kts | 79° |
| 2026-05-07 20:08 | 49.20249 | -2.25964 | 1011 ft | 168 kts | 80° |
| 2026-05-07 20:08 | 49.20398 | -2.24207 | 777 ft | 165 kts | 80° |
| 2026-05-07 20:08 | 49.20544 | -2.22526 | 551 ft | 155 kts | 79° |
| 2026-05-07 20:08 | 49.20678 | -2.20971 | 394 ft | 139 kts | 81° |
| 2026-05-07 20:09 | 49.20829 | -2.19139 | 277 ft | 115 kts | 81° |
| 2026-05-07 20:09 | 49.20903 | -2.18416 | 276 ft | 78 kts | 81° |
| 2026-05-07 20:09 | 49.20830 | -2.17901 | 287 ft | 20 kts | 165° |
| 2026-05-07 20:10 | 49.20896 | -2.18228 | 282 ft | 35 kts | 279° |
| 2026-05-07 20:10 | 49.20803 | -2.18366 | 276 ft | 26 kts | 187° |
| 2026-05-07 20:10 | 49.20720 | -2.18604 | 271 ft | 35 kts | 266° |
| 2026-05-07 20:10 | 49.20685 | -2.19068 | 272 ft | 50 kts | 261° |
| 2026-05-07 20:11 | 49.20700 | -2.19398 | 277 ft | 33 kts | 282° |
| 2026-05-07 20:11 | 49.20642 | -2.19677 | 273 ft | 10 kts | 210° |